sensor_id;sensor_type;location;lat;lon;timestamp;temperature;humidity
56869;DHT22;42754;0.000;0.000;2023-03-01T00:01:58;0.00;99.90
56869;DHT22;42754;0.000;0.000;2023-03-01T00:04:23;0.00;99.90
56869;DHT22;42754;0.000;0.000;2023-03-01T00:06:49;-0.10;99.90
56869;DHT22;42754;0.000;0.000;2023-03-01T00:09:15;-0.10;99.90
56869;DHT22;42754;0.000;0.000;2023-03-01T00:11:41;-0.20;99.90
56869;DHT22;42754;0.000;0.000;2023-03-01T00:14:06;-0.20;99.90
56869;DHT22;42754;0.000;0.000;2023-03-01T00:16:36;-0.20;99.90
56869;DHT22;42754;0.000;0.000;2023-03-01T00:19:04;-0.20;99.90
56869;DHT22;42754;0.000;0.000;2023-03-01T00:21:29;-0.20;99.90
56869;DHT22;42754;0.000;0.000;2023-03-01T00:23:55;-0.20;99.90
56869;DHT22;42754;0.000;0.000;2023-03-01T00:26:21;-0.30;99.90
56869;DHT22;42754;0.000;0.000;2023-03-01T00:28:47;-0.30;99.90
56869;DHT22;42754;0.000;0.000;2023-03-01T00:31:17;-0.30;99.90
56869;DHT22;42754;0.000;0.000;2023-03-01T00:33:43;-0.30;99.90
56869;DHT22;42754;0.000;0.000;2023-03-01T00:36:09;-0.40;99.90
56869;DHT22;42754;0.000;0.000;2023-03-01T00:38:36;-0.30;99.90
56869;DHT22;42754;0.000;0.000;2023-03-01T00:41:05;-0.30;99.90
56869;DHT22;42754;0.000;0.000;2023-03-01T00:43:32;-0.40;99.90
56869;DHT22;42754;0.000;0.000;2023-03-01T00:46:11;-0.50;99.90
56869;DHT22;42754;0.000;0.000;2023-03-01T00:48:37;-0.40;99.90
56869;DHT22;42754;0.000;0.000;2023-03-01T00:53:34;-0.50;99.90
56869;DHT22;42754;0.000;0.000;2023-03-01T00:56:00;-0.50;99.90
56869;DHT22;42754;0.000;0.000;2023-03-01T00:58:26;-0.50;99.90
56869;DHT22;42754;0.000;0.000;2023-03-01T01:00:52;-0.40;99.90
56869;DHT22;42754;0.000;0.000;2023-03-01T01:03:20;-0.50;99.90
56869;DHT22;42754;0.000;0.000;2023-03-01T01:05:46;-0.40;99.90
56869;DHT22;42754;0.000;0.000;2023-03-01T01:08:11;-0.50;99.90
56869;DHT22;42754;0.000;0.000;2023-03-01T01:10:37;-0.60;99.90
56869;DHT22;42754;0.000;0.000;2023-03-01T01:13:03;-0.60;99.90
56869;DHT22;42754;0.000;0.000;2023-03-01T01:15:28;-0.60;99.90
56869;DHT22;42754;0.000;0.000;2023-03-01T01:17:54;-0.60;99.90
56869;DHT22;42754;0.000;0.000;2023-03-01T01:20:20;-0.70;99.90
56869;DHT22;42754;0.000;0.000;2023-03-01T01:22:46;-0.70;99.90
56869;DHT22;42754;0.000;0.000;2023-03-01T01:25:11;-0.60;99.90
56869;DHT22;42754;0.000;0.000;2023-03-01T01:27:37;-0.60;99.90
56869;DHT22;42754;0.000;0.000;2023-03-01T01:30:03;-0.70;99.90
56869;DHT22;42754;0.000;0.000;2023-03-01T01:32:29;-0.70;99.90
56869;DHT22;42754;0.000;0.000;2023-03-01T01:34:54;-0.70;99.90
56869;DHT22;42754;0.000;0.000;2023-03-01T01:37:20;-0.80;99.90
56869;DHT22;42754;0.000;0.000;2023-03-01T01:39:46;-0.80;99.90
56869;DHT22;42754;0.000;0.000;2023-03-01T01:42:20;-0.70;99.90
56869;DHT22;42754;0.000;0.000;2023-03-01T01:44:46;-0.80;99.90
56869;DHT22;42754;0.000;0.000;2023-03-01T01:47:13;-0.80;99.90
56869;DHT22;42754;0.000;0.000;2023-03-01T01:49:46;-0.70;99.90
56869;DHT22;42754;0.000;0.000;2023-03-01T01:52:23;-0.80;99.90
56869;DHT22;42754;0.000;0.000;2023-03-01T01:54:54;-0.80;99.90
56869;DHT22;42754;0.000;0.000;2023-03-01T01:57:38;-0.90;99.90
56869;DHT22;42754;0.000;0.000;2023-03-01T02:00:05;-0.90;99.90
56869;DHT22;42754;0.000;0.000;2023-03-01T02:02:31;-0.90;99.90
56869;DHT22;42754;0.000;0.000;2023-03-01T02:05:08;-0.80;99.90
56869;DHT22;42754;0.000;0.000;2023-03-01T02:07:35;-0.80;99.90
56869;DHT22;42754;0.000;0.000;2023-03-01T02:10:02;-0.80;99.90
56869;DHT22;42754;0.000;0.000;2023-03-01T02:12:28;-0.80;99.90
56869;DHT22;42754;0.000;0.000;2023-03-01T02:14:54;-0.80;99.90
56869;DHT22;42754;0.000;0.000;2023-03-01T02:17:19;-0.90;99.90
56869;DHT22;42754;0.000;0.000;2023-03-01T02:22:47;-0.90;99.90
56869;DHT22;42754;0.000;0.000;2023-03-01T02:30:36;-0.80;99.90
56869;DHT22;42754;0.000;0.000;2023-03-01T02:33:02;-0.90;99.90
56869;DHT22;42754;0.000;0.000;2023-03-01T02:35:32;-0.90;99.90
56869;DHT22;42754;0.000;0.000;2023-03-01T02:37:59;-0.90;99.90
56869;DHT22;42754;0.000;0.000;2023-03-01T02:40:27;-0.90;99.90
56869;DHT22;42754;0.000;0.000;2023-03-01T02:42:54;-0.90;99.90
56869;DHT22;42754;0.000;0.000;2023-03-01T02:45:21;-0.90;99.90
56869;DHT22;42754;0.000;0.000;2023-03-01T02:47:46;-1.00;99.90
56869;DHT22;42754;0.000;0.000;2023-03-01T02:50:21;-0.90;99.90
56869;DHT22;42754;0.000;0.000;2023-03-01T02:52:53;-0.90;99.90
56869;DHT22;42754;0.000;0.000;2023-03-01T02:55:22;-0.90;99.90
56869;DHT22;42754;0.000;0.000;2023-03-01T02:57:47;-0.90;99.90
56869;DHT22;42754;0.000;0.000;2023-03-01T03:00:35;-1.00;99.90
56869;DHT22;42754;0.000;0.000;2023-03-01T03:03:04;-1.00;99.90
56869;DHT22;42754;0.000;0.000;2023-03-01T03:05:31;-1.00;99.90
56869;DHT22;42754;0.000;0.000;2023-03-01T03:07:57;-1.00;99.90
56869;DHT22;42754;0.000;0.000;2023-03-01T03:10:24;-1.00;99.90
56869;DHT22;42754;0.000;0.000;2023-03-01T03:12:57;-1.00;99.90
56869;DHT22;42754;0.000;0.000;2023-03-01T03:15:23;-1.00;99.90
56869;DHT22;42754;0.000;0.000;2023-03-01T03:17:50;-1.00;99.90
56869;DHT22;42754;0.000;0.000;2023-03-01T03:20:16;-1.00;99.90
56869;DHT22;42754;0.000;0.000;2023-03-01T03:22:46;-1.00;99.90
56869;DHT22;42754;0.000;0.000;2023-03-01T03:25:12;-1.10;99.90
56869;DHT22;42754;0.000;0.000;2023-03-01T03:27:38;-1.00;99.90
56869;DHT22;42754;0.000;0.000;2023-03-01T03:30:05;-1.10;99.90
56869;DHT22;42754;0.000;0.000;2023-03-01T03:32:35;-1.10;99.90
56869;DHT22;42754;0.000;0.000;2023-03-01T03:35:00;-1.10;99.90
56869;DHT22;42754;0.000;0.000;2023-03-01T03:37:26;-1.10;99.90
56869;DHT22;42754;0.000;0.000;2023-03-01T03:40:10;-1.20;99.90
56869;DHT22;42754;0.000;0.000;2023-03-01T03:42:40;-1.10;99.90
56869;DHT22;42754;0.000;0.000;2023-03-01T03:45:06;-1.20;99.90
56869;DHT22;42754;0.000;0.000;2023-03-01T03:47:32;-1.10;99.90
56869;DHT22;42754;0.000;0.000;2023-03-01T03:49:57;-1.10;99.90
56869;DHT22;42754;0.000;0.000;2023-03-01T03:52:23;-1.10;99.90
56869;DHT22;42754;0.000;0.000;2023-03-01T03:54:48;-1.10;99.90
56869;DHT22;42754;0.000;0.000;2023-03-01T03:57:14;-1.10;99.90
56869;DHT22;42754;0.000;0.000;2023-03-01T03:59:40;-1.00;99.90
56869;DHT22;42754;0.000;0.000;2023-03-01T04:02:06;-1.10;99.90
56869;DHT22;42754;0.000;0.000;2023-03-01T04:04:34;-1.10;99.90
56869;DHT22;42754;0.000;0.000;2023-03-01T04:06:59;-1.20;99.90
56869;DHT22;42754;0.000;0.000;2023-03-01T04:09:25;-1.10;99.90
56869;DHT22;42754;0.000;0.000;2023-03-01T04:11:50;-1.10;99.90
56869;DHT22;42754;0.000;0.000;2023-03-01T04:14:16;-1.20;99.90
56869;DHT22;42754;0.000;0.000;2023-03-01T04:16:43;-1.20;99.90
56869;DHT22;42754;0.000;0.000;2023-03-01T04:19:08;-1.30;99.90
56869;DHT22;42754;0.000;0.000;2023-03-01T04:21:34;-1.30;99.90
56869;DHT22;42754;0.000;0.000;2023-03-01T04:24:01;-1.40;99.90
56869;DHT22;42754;0.000;0.000;2023-03-01T04:26:29;-1.40;99.90
56869;DHT22;42754;0.000;0.000;2023-03-01T04:28:54;-1.40;99.90
56869;DHT22;42754;0.000;0.000;2023-03-01T04:31:21;-1.30;99.90
56869;DHT22;42754;0.000;0.000;2023-03-01T04:33:48;-1.40;99.90
56869;DHT22;42754;0.000;0.000;2023-03-01T04:36:15;-1.40;99.90
56869;DHT22;42754;0.000;0.000;2023-03-01T04:38:40;-1.40;99.90
56869;DHT22;42754;0.000;0.000;2023-03-01T04:41:07;-1.50;99.90
56869;DHT22;42754;0.000;0.000;2023-03-01T04:43:33;-1.40;99.90
56869;DHT22;42754;0.000;0.000;2023-03-01T04:46:10;-1.40;99.90
56869;DHT22;42754;0.000;0.000;2023-03-01T04:48:39;-1.50;99.90
56869;DHT22;42754;0.000;0.000;2023-03-01T04:51:05;-1.60;99.90
56869;DHT22;42754;0.000;0.000;2023-03-01T04:53:31;-1.50;99.90
56869;DHT22;42754;0.000;0.000;2023-03-01T04:55:57;-1.50;99.90
56869;DHT22;42754;0.000;0.000;2023-03-01T04:58:23;-1.50;99.90
56869;DHT22;42754;0.000;0.000;2023-03-01T05:00:49;-1.50;99.90
56869;DHT22;42754;0.000;0.000;2023-03-01T05:03:15;-1.50;99.90
56869;DHT22;42754;0.000;0.000;2023-03-01T05:05:43;-1.60;99.90
56869;DHT22;42754;0.000;0.000;2023-03-01T05:08:09;-1.60;99.90
56869;DHT22;42754;0.000;0.000;2023-03-01T05:10:46;-1.50;99.90
56869;DHT22;42754;0.000;0.000;2023-03-01T05:13:13;-1.50;99.90
56869;DHT22;42754;0.000;0.000;2023-03-01T05:15:40;-1.60;99.90
56869;DHT22;42754;0.000;0.000;2023-03-01T05:18:05;-1.60;99.90
56869;DHT22;42754;0.000;0.000;2023-03-01T05:20:36;-1.50;99.90
56869;DHT22;42754;0.000;0.000;2023-03-01T05:23:02;-1.50;99.90
56869;DHT22;42754;0.000;0.000;2023-03-01T05:25:31;-1.60;99.90
56869;DHT22;42754;0.000;0.000;2023-03-01T05:28:00;-1.60;99.90
56869;DHT22;42754;0.000;0.000;2023-03-01T05:30:30;-1.60;99.90
56869;DHT22;42754;0.000;0.000;2023-03-01T05:32:55;-1.60;99.90
56869;DHT22;42754;0.000;0.000;2023-03-01T05:35:21;-1.70;99.90
56869;DHT22;42754;0.000;0.000;2023-03-01T05:37:48;-1.70;99.90
56869;DHT22;42754;0.000;0.000;2023-03-01T05:40:16;-1.60;99.90
56869;DHT22;42754;0.000;0.000;2023-03-01T05:42:43;-1.70;99.90
56869;DHT22;42754;0.000;0.000;2023-03-01T05:45:09;-1.60;99.90
56869;DHT22;42754;0.000;0.000;2023-03-01T05:47:35;-1.70;99.90
56869;DHT22;42754;0.000;0.000;2023-03-01T05:50:01;-1.70;99.90
56869;DHT22;42754;0.000;0.000;2023-03-01T05:52:26;-1.70;99.90
56869;DHT22;42754;0.000;0.000;2023-03-01T05:54:52;-1.70;99.90
56869;DHT22;42754;0.000;0.000;2023-03-01T05:57:18;-1.70;99.90
56869;DHT22;42754;0.000;0.000;2023-03-01T05:59:43;-1.80;99.90
56869;DHT22;42754;0.000;0.000;2023-03-01T06:02:09;-1.80;99.90
56869;DHT22;42754;0.000;0.000;2023-03-01T06:04:34;-1.80;99.90
56869;DHT22;42754;0.000;0.000;2023-03-01T06:07:02;-1.90;99.90
56869;DHT22;42754;0.000;0.000;2023-03-01T06:09:27;-1.80;99.90
56869;DHT22;42754;0.000;0.000;2023-03-01T06:11:53;-1.70;99.90
56869;DHT22;42754;0.000;0.000;2023-03-01T06:14:19;-1.80;99.90
56869;DHT22;42754;0.000;0.000;2023-03-01T06:16:47;-1.80;99.90
56869;DHT22;42754;0.000;0.000;2023-03-01T06:19:12;-1.80;99.90
56869;DHT22;42754;0.000;0.000;2023-03-01T06:21:39;-1.80;99.90
56869;DHT22;42754;0.000;0.000;2023-03-01T06:24:04;-1.80;99.90
56869;DHT22;42754;0.000;0.000;2023-03-01T06:26:32;-1.80;99.90
56869;DHT22;42754;0.000;0.000;2023-03-01T06:28:58;-1.80;99.90
56869;DHT22;42754;0.000;0.000;2023-03-01T06:31:23;-1.80;99.90
56869;DHT22;42754;0.000;0.000;2023-03-01T06:33:49;-1.80;99.90
56869;DHT22;42754;0.000;0.000;2023-03-01T06:36:15;-1.80;99.90
56869;DHT22;42754;0.000;0.000;2023-03-01T06:38:44;-1.70;99.90
56869;DHT22;42754;0.000;0.000;2023-03-01T06:41:09;-1.70;99.90
56869;DHT22;42754;0.000;0.000;2023-03-01T06:43:35;-1.70;99.90
56869;DHT22;42754;0.000;0.000;2023-03-01T06:46:03;-1.60;99.90
56869;DHT22;42754;0.000;0.000;2023-03-01T06:48:28;-1.60;99.90
56869;DHT22;42754;0.000;0.000;2023-03-01T06:50:56;-1.70;99.90
56869;DHT22;42754;0.000;0.000;2023-03-01T06:53:22;-1.60;99.90
56869;DHT22;42754;0.000;0.000;2023-03-01T06:55:53;-1.60;99.90
56869;DHT22;42754;0.000;0.000;2023-03-01T06:58:18;-1.60;99.90
56869;DHT22;42754;0.000;0.000;2023-03-01T07:00:45;-1.50;99.90
56869;DHT22;42754;0.000;0.000;2023-03-01T07:03:10;-1.10;99.90
56869;DHT22;42754;0.000;0.000;2023-03-01T07:05:36;-0.80;99.90
56869;DHT22;42754;0.000;0.000;2023-03-01T07:08:02;-0.60;99.90
56869;DHT22;42754;0.000;0.000;2023-03-01T07:12:57;0.30;99.90
56869;DHT22;42754;0.000;0.000;2023-03-01T07:15:23;2.30;99.90
56869;DHT22;42754;0.000;0.000;2023-03-01T07:17:49;5.10;99.90
56869;DHT22;42754;0.000;0.000;2023-03-01T07:20:16;7.70;99.90
56869;DHT22;42754;0.000;0.000;2023-03-01T07:22:42;9.40;96.50
56869;DHT22;42754;0.000;0.000;2023-03-01T07:25:08;11.00;93.20
56869;DHT22;42754;0.000;0.000;2023-03-01T07:27:33;12.10;91.30
56869;DHT22;42754;0.000;0.000;2023-03-01T07:29:59;12.80;90.30
56869;DHT22;42754;0.000;0.000;2023-03-01T07:32:25;12.60;89.50
56869;DHT22;42754;0.000;0.000;2023-03-01T07:34:51;11.60;89.30
56869;DHT22;42754;0.000;0.000;2023-03-01T07:37:18;8.90;91.40
56869;DHT22;42754;0.000;0.000;2023-03-01T07:39:44;8.80;92.30
56869;DHT22;42754;0.000;0.000;2023-03-01T07:42:09;8.50;92.10
56869;DHT22;42754;0.000;0.000;2023-03-01T07:44:35;7.80;93.50
56869;DHT22;42754;0.000;0.000;2023-03-01T07:47:02;6.70;95.00
56869;DHT22;42754;0.000;0.000;2023-03-01T07:49:28;5.90;96.10
56869;DHT22;42754;0.000;0.000;2023-03-01T07:51:54;5.90;96.90
56869;DHT22;42754;0.000;0.000;2023-03-01T07:54:19;6.00;97.70
56869;DHT22;42754;0.000;0.000;2023-03-01T07:56:48;5.50;97.80
56869;DHT22;42754;0.000;0.000;2023-03-01T07:59:14;5.40;98.90
56869;DHT22;42754;0.000;0.000;2023-03-01T08:01:41;5.20;99.60
56869;DHT22;42754;0.000;0.000;2023-03-01T08:04:07;5.30;99.60
56869;DHT22;42754;0.000;0.000;2023-03-01T08:06:33;5.80;99.40
56869;DHT22;42754;0.000;0.000;2023-03-01T08:08:59;5.80;99.30
56869;DHT22;42754;0.000;0.000;2023-03-01T08:11:26;6.00;98.80
56869;DHT22;42754;0.000;0.000;2023-03-01T08:13:55;6.20;99.00
56869;DHT22;42754;0.000;0.000;2023-03-01T08:16:21;5.90;99.00
56869;DHT22;42754;0.000;0.000;2023-03-01T08:18:47;6.20;99.70
56869;DHT22;42754;0.000;0.000;2023-03-01T08:21:14;6.60;99.10
56869;DHT22;42754;0.000;0.000;2023-03-01T08:23:40;6.80;98.40
56869;DHT22;42754;0.000;0.000;2023-03-01T08:26:16;6.50;99.10
56869;DHT22;42754;0.000;0.000;2023-03-01T08:28:42;7.00;98.40
56869;DHT22;42754;0.000;0.000;2023-03-01T08:31:24;7.20;97.90
56869;DHT22;42754;0.000;0.000;2023-03-01T08:33:52;7.30;97.60
56869;DHT22;42754;0.000;0.000;2023-03-01T08:36:20;7.50;98.20
56869;DHT22;42754;0.000;0.000;2023-03-01T08:38:46;7.50;96.30
56869;DHT22;42754;0.000;0.000;2023-03-01T08:41:12;7.70;96.40
56869;DHT22;42754;0.000;0.000;2023-03-01T08:43:38;8.10;97.10
56869;DHT22;42754;0.000;0.000;2023-03-01T08:46:03;8.50;95.60
56869;DHT22;42754;0.000;0.000;2023-03-01T08:48:29;9.10;95.70
56869;DHT22;42754;0.000;0.000;2023-03-01T08:50:55;9.10;95.30
56869;DHT22;42754;0.000;0.000;2023-03-01T08:53:22;9.50;94.70
56869;DHT22;42754;0.000;0.000;2023-03-01T08:55:48;9.40;93.70
56869;DHT22;42754;0.000;0.000;2023-03-01T08:58:14;9.60;93.90
56869;DHT22;42754;0.000;0.000;2023-03-01T09:00:40;9.80;93.40
56869;DHT22;42754;0.000;0.000;2023-03-01T09:03:05;10.00;94.90
56869;DHT22;42754;0.000;0.000;2023-03-01T09:05:32;10.10;93.40
56869;DHT22;42754;0.000;0.000;2023-03-01T09:08:00;9.90;92.70
56869;DHT22;42754;0.000;0.000;2023-03-01T09:10:25;10.10;92.50
56869;DHT22;42754;0.000;0.000;2023-03-01T09:12:51;10.20;92.70
56869;DHT22;42754;0.000;0.000;2023-03-01T09:15:17;10.50;92.70
56869;DHT22;42754;0.000;0.000;2023-03-01T09:17:43;10.30;93.00
56869;DHT22;42754;0.000;0.000;2023-03-01T09:20:09;10.60;93.00
56869;DHT22;42754;0.000;0.000;2023-03-01T09:22:35;10.50;92.50
56869;DHT22;42754;0.000;0.000;2023-03-01T09:25:01;10.30;91.50
56869;DHT22;42754;0.000;0.000;2023-03-01T09:27:26;10.30;91.80
56869;DHT22;42754;0.000;0.000;2023-03-01T09:29:52;10.50;91.70
56869;DHT22;42754;0.000;0.000;2023-03-01T09:32:17;10.60;92.30
56869;DHT22;42754;0.000;0.000;2023-03-01T09:34:43;11.00;90.90
56869;DHT22;42754;0.000;0.000;2023-03-01T09:37:30;10.80;91.60
56869;DHT22;42754;0.000;0.000;2023-03-01T09:39:55;10.80;90.20
56869;DHT22;42754;0.000;0.000;2023-03-01T09:42:21;10.70;91.20
56869;DHT22;42754;0.000;0.000;2023-03-01T09:44:55;10.30;91.40
56869;DHT22;42754;0.000;0.000;2023-03-01T09:47:26;10.10;90.10
56869;DHT22;42754;0.000;0.000;2023-03-01T09:54:48;10.20;90.30
56869;DHT22;42754;0.000;0.000;2023-03-01T10:00:09;10.00;90.60
56869;DHT22;42754;0.000;0.000;2023-03-01T10:10:35;9.20;90.80
56869;DHT22;42754;0.000;0.000;2023-03-01T10:13:03;9.00;91.10
56869;DHT22;42754;0.000;0.000;2023-03-01T10:15:35;9.30;91.40
56869;DHT22;42754;0.000;0.000;2023-03-01T10:18:10;9.30;90.20
56869;DHT22;42754;0.000;0.000;2023-03-01T10:23:08;9.70;90.10
56869;DHT22;42754;0.000;0.000;2023-03-01T10:30:49;9.90;88.00
56869;DHT22;42754;0.000;0.000;2023-03-01T10:35:45;9.50;87.80
56869;DHT22;42754;0.000;0.000;2023-03-01T10:38:12;9.90;87.90
56869;DHT22;42754;0.000;0.000;2023-03-01T10:41:12;9.70;88.00
56869;DHT22;42754;0.000;0.000;2023-03-01T10:43:40;9.40;87.40
56869;DHT22;42754;0.000;0.000;2023-03-01T10:46:21;9.60;87.40
56869;DHT22;42754;0.000;0.000;2023-03-01T10:48:51;9.60;87.70
56869;DHT22;42754;0.000;0.000;2023-03-01T10:51:30;9.60;88.90
56869;DHT22;42754;0.000;0.000;2023-03-01T10:53:56;9.40;89.00
56869;DHT22;42754;0.000;0.000;2023-03-01T10:56:21;9.40;86.30
56869;DHT22;42754;0.000;0.000;2023-03-01T11:03:54;9.20;86.70
56869;DHT22;42754;0.000;0.000;2023-03-01T11:06:28;9.00;87.80
56869;DHT22;42754;0.000;0.000;2023-03-01T11:08:53;9.30;87.50
56869;DHT22;42754;0.000;0.000;2023-03-01T11:14:06;9.50;87.10
56869;DHT22;42754;0.000;0.000;2023-03-01T11:16:35;9.70;86.40
56869;DHT22;42754;0.000;0.000;2023-03-01T11:21:32;9.80;85.20
56869;DHT22;42754;0.000;0.000;2023-03-01T11:24:00;10.00;85.40
56869;DHT22;42754;0.000;0.000;2023-03-01T11:26:28;9.90;85.60
56869;DHT22;42754;0.000;0.000;2023-03-01T11:28:54;10.00;86.30
56869;DHT22;42754;0.000;0.000;2023-03-01T11:31:21;10.40;86.60
56869;DHT22;42754;0.000;0.000;2023-03-01T11:34:32;10.40;85.00
56869;DHT22;42754;0.000;0.000;2023-03-01T11:36:46;10.70;85.90
56869;DHT22;42754;0.000;0.000;2023-03-01T11:41:49;10.30;83.50
56869;DHT22;42754;0.000;0.000;2023-03-01T11:44:23;10.20;84.70
56869;DHT22;42754;0.000;0.000;2023-03-01T11:49:41;10.40;84.40
56869;DHT22;42754;0.000;0.000;2023-03-01T11:52:15;10.30;83.50
56869;DHT22;42754;0.000;0.000;2023-03-01T12:02:14;10.30;84.00
56869;DHT22;42754;0.000;0.000;2023-03-01T12:10:19;10.30;82.80
56869;DHT22;42754;0.000;0.000;2023-03-01T12:18:07;10.40;81.70
56869;DHT22;42754;0.000;0.000;2023-03-01T12:20:37;10.20;81.50
56869;DHT22;42754;0.000;0.000;2023-03-01T12:33:43;10.40;80.20
56869;DHT22;42754;0.000;0.000;2023-03-01T12:43:52;9.90;80.80
56869;DHT22;42754;0.000;0.000;2023-03-01T12:46:40;9.90;82.00
56869;DHT22;42754;0.000;0.000;2023-03-01T12:51:39;10.10;83.50
56869;DHT22;42754;0.000;0.000;2023-03-01T12:54:07;10.40;84.10
56869;DHT22;42754;0.000;0.000;2023-03-01T12:56:37;10.30;83.80
56869;DHT22;42754;0.000;0.000;2023-03-01T13:04:18;10.40;83.80
56869;DHT22;42754;0.000;0.000;2023-03-01T13:14:58;10.00;82.10
56869;DHT22;42754;0.000;0.000;2023-03-01T13:17:33;10.00;82.60
56869;DHT22;42754;0.000;0.000;2023-03-01T13:20:11;10.10;81.00
56869;DHT22;42754;0.000;0.000;2023-03-01T13:22:37;9.80;79.90
56869;DHT22;42754;0.000;0.000;2023-03-01T13:25:11;10.00;82.40
56869;DHT22;42754;0.000;0.000;2023-03-01T13:27:38;10.30;82.60
56869;DHT22;42754;0.000;0.000;2023-03-01T13:30:04;10.10;81.40
56869;DHT22;42754;0.000;0.000;2023-03-01T13:32:35;9.90;81.20
56869;DHT22;42754;0.000;0.000;2023-03-01T13:37:42;9.70;80.70
56869;DHT22;42754;0.000;0.000;2023-03-01T13:42:45;9.60;82.50
56869;DHT22;42754;0.000;0.000;2023-03-01T13:47:40;10.10;84.80
56869;DHT22;42754;0.000;0.000;2023-03-01T13:50:15;10.20;82.90
56869;DHT22;42754;0.000;0.000;2023-03-01T13:52:46;10.30;82.60
56869;DHT22;42754;0.000;0.000;2023-03-01T13:57:39;10.00;82.50
56869;DHT22;42754;0.000;0.000;2023-03-01T14:00:04;10.10;83.40
56869;DHT22;42754;0.000;0.000;2023-03-01T14:02:30;10.10;83.30
56869;DHT22;42754;0.000;0.000;2023-03-01T14:04:57;10.00;83.00
56869;DHT22;42754;0.000;0.000;2023-03-01T14:07:23;9.80;81.80
56869;DHT22;42754;0.000;0.000;2023-03-01T14:09:56;9.80;82.40
56869;DHT22;42754;0.000;0.000;2023-03-01T14:12:38;9.70;80.50
56869;DHT22;42754;0.000;0.000;2023-03-01T14:19:57;10.00;81.50
56869;DHT22;42754;0.000;0.000;2023-03-01T14:22:24;9.90;81.10
56869;DHT22;42754;0.000;0.000;2023-03-01T14:24:54;9.90;80.20
56869;DHT22;42754;0.000;0.000;2023-03-01T14:27:20;9.90;79.40
56869;DHT22;42754;0.000;0.000;2023-03-01T14:29:57;10.00;80.40
56869;DHT22;42754;0.000;0.000;2023-03-01T14:32:30;10.00;80.00
56869;DHT22;42754;0.000;0.000;2023-03-01T14:34:56;9.90;81.40
56869;DHT22;42754;0.000;0.000;2023-03-01T14:37:24;9.90;80.90
56869;DHT22;42754;0.000;0.000;2023-03-01T14:39:50;9.80;79.90
56869;DHT22;42754;0.000;0.000;2023-03-01T14:42:16;9.80;80.30
56869;DHT22;42754;0.000;0.000;2023-03-01T14:44:43;9.80;80.20
56869;DHT22;42754;0.000;0.000;2023-03-01T14:47:11;9.80;80.70
56869;DHT22;42754;0.000;0.000;2023-03-01T14:49:38;9.80;81.00
56869;DHT22;42754;0.000;0.000;2023-03-01T14:52:06;9.90;82.10
56869;DHT22;42754;0.000;0.000;2023-03-01T14:54:41;9.90;82.10
56869;DHT22;42754;0.000;0.000;2023-03-01T15:00:03;9.50;80.30
56869;DHT22;42754;0.000;0.000;2023-03-01T15:02:31;9.50;81.30
56869;DHT22;42754;0.000;0.000;2023-03-01T15:04:58;9.50;81.10
56869;DHT22;42754;0.000;0.000;2023-03-01T15:07:30;9.40;80.90
56869;DHT22;42754;0.000;0.000;2023-03-01T15:09:57;9.40;81.70
56869;DHT22;42754;0.000;0.000;2023-03-01T15:14:57;9.40;83.60
56869;DHT22;42754;0.000;0.000;2023-03-01T15:19:52;9.30;83.90
56869;DHT22;42754;0.000;0.000;2023-03-01T15:22:19;9.20;83.20
56869;DHT22;42754;0.000;0.000;2023-03-01T15:24:46;9.10;82.60
56869;DHT22;42754;0.000;0.000;2023-03-01T15:27:14;8.90;82.50
56869;DHT22;42754;0.000;0.000;2023-03-01T15:29:41;8.90;82.30
56869;DHT22;42754;0.000;0.000;2023-03-01T15:34:51;8.50;83.10
56869;DHT22;42754;0.000;0.000;2023-03-01T15:37:37;8.40;83.60
56869;DHT22;42754;0.000;0.000;2023-03-01T15:40:17;8.40;83.60
56869;DHT22;42754;0.000;0.000;2023-03-01T15:42:44;8.30;83.50
56869;DHT22;42754;0.000;0.000;2023-03-01T15:47:39;8.20;84.20
56869;DHT22;42754;0.000;0.000;2023-03-01T15:50:28;8.10;81.70
56869;DHT22;42754;0.000;0.000;2023-03-01T15:52:52;8.00;82.90
56869;DHT22;42754;0.000;0.000;2023-03-01T15:55:25;8.00;83.20
56869;DHT22;42754;0.000;0.000;2023-03-01T15:57:58;7.90;84.30
56869;DHT22;42754;0.000;0.000;2023-03-01T16:00:26;7.90;84.70
56869;DHT22;42754;0.000;0.000;2023-03-01T16:02:51;7.80;84.70
56869;DHT22;42754;0.000;0.000;2023-03-01T16:05:20;7.70;84.50
56869;DHT22;42754;0.000;0.000;2023-03-01T16:07:45;7.70;84.30
56869;DHT22;42754;0.000;0.000;2023-03-01T16:10:11;7.70;84.90
56869;DHT22;42754;0.000;0.000;2023-03-01T16:12:37;7.60;85.00
56869;DHT22;42754;0.000;0.000;2023-03-01T16:15:04;7.50;85.10
56869;DHT22;42754;0.000;0.000;2023-03-01T16:17:30;7.50;84.50
56869;DHT22;42754;0.000;0.000;2023-03-01T16:19:56;7.40;84.60
56869;DHT22;42754;0.000;0.000;2023-03-01T16:22:21;7.50;85.40
56869;DHT22;42754;0.000;0.000;2023-03-01T16:24:50;7.40;85.60
56869;DHT22;42754;0.000;0.000;2023-03-01T16:27:15;7.40;86.50
56869;DHT22;42754;0.000;0.000;2023-03-01T16:29:41;7.30;86.30
56869;DHT22;42754;0.000;0.000;2023-03-01T16:32:06;7.30;86.40
56869;DHT22;42754;0.000;0.000;2023-03-01T16:34:32;7.30;86.60
56869;DHT22;42754;0.000;0.000;2023-03-01T16:36:58;7.30;86.80
56869;DHT22;42754;0.000;0.000;2023-03-01T16:39:23;7.20;87.10
56869;DHT22;42754;0.000;0.000;2023-03-01T16:41:49;7.20;87.70
56869;DHT22;42754;0.000;0.000;2023-03-01T16:44:14;7.10;88.10
56869;DHT22;42754;0.000;0.000;2023-03-01T16:46:40;7.10;88.40
56869;DHT22;42754;0.000;0.000;2023-03-01T16:49:06;7.00;89.00
56869;DHT22;42754;0.000;0.000;2023-03-01T16:51:32;7.00;89.40
56869;DHT22;42754;0.000;0.000;2023-03-01T16:53:59;7.00;89.70
56869;DHT22;42754;0.000;0.000;2023-03-01T16:56:26;6.90;90.10
56869;DHT22;42754;0.000;0.000;2023-03-01T16:58:52;6.80;90.20
56869;DHT22;42754;0.000;0.000;2023-03-01T17:01:19;6.80;90.30
56869;DHT22;42754;0.000;0.000;2023-03-01T17:03:45;6.70;90.40
56869;DHT22;42754;0.000;0.000;2023-03-01T17:06:13;6.60;90.60
56869;DHT22;42754;0.000;0.000;2023-03-01T17:08:38;6.60;90.60
56869;DHT22;42754;0.000;0.000;2023-03-01T17:11:11;6.60;90.70
56869;DHT22;42754;0.000;0.000;2023-03-01T17:13:37;6.50;90.80
56869;DHT22;42754;0.000;0.000;2023-03-01T17:16:04;6.50;90.70
56869;DHT22;42754;0.000;0.000;2023-03-01T17:18:30;6.50;90.80
56869;DHT22;42754;0.000;0.000;2023-03-01T17:20:56;6.40;91.10
56869;DHT22;42754;0.000;0.000;2023-03-01T17:23:21;6.40;91.00
56869;DHT22;42754;0.000;0.000;2023-03-01T17:25:47;6.30;91.00
56869;DHT22;42754;0.000;0.000;2023-03-01T17:28:15;6.30;90.90
56869;DHT22;42754;0.000;0.000;2023-03-01T17:30:41;6.30;90.90
56869;DHT22;42754;0.000;0.000;2023-03-01T17:33:08;6.20;91.30
56869;DHT22;42754;0.000;0.000;2023-03-01T17:35:33;6.20;91.40
56869;DHT22;42754;0.000;0.000;2023-03-01T17:38:01;6.20;91.40
56869;DHT22;42754;0.000;0.000;2023-03-01T17:40:27;6.10;91.80
56869;DHT22;42754;0.000;0.000;2023-03-01T17:42:53;6.10;91.80
56869;DHT22;42754;0.000;0.000;2023-03-01T17:45:19;6.00;91.90
56869;DHT22;42754;0.000;0.000;2023-03-01T17:47:45;5.90;92.30
56869;DHT22;42754;0.000;0.000;2023-03-01T17:50:10;5.80;92.50
56869;DHT22;42754;0.000;0.000;2023-03-01T17:52:36;5.90;92.70
56869;DHT22;42754;0.000;0.000;2023-03-01T17:55:02;5.80;93.00
56869;DHT22;42754;0.000;0.000;2023-03-01T17:57:28;5.80;93.10
56869;DHT22;42754;0.000;0.000;2023-03-01T17:59:54;5.80;93.20
56869;DHT22;42754;0.000;0.000;2023-03-01T18:02:19;5.70;93.40
56869;DHT22;42754;0.000;0.000;2023-03-01T18:04:45;5.70;93.80
56869;DHT22;42754;0.000;0.000;2023-03-01T18:07:11;5.70;93.70
56869;DHT22;42754;0.000;0.000;2023-03-01T18:09:37;5.60;93.50
56869;DHT22;42754;0.000;0.000;2023-03-01T18:12:03;5.50;93.80